Time;durP1;ratioP1;P1;durP2;ratioP2;P2;SDS_P1;SDS_P2;PMS_P1;PMS_P2;Temp;Humidity;BMP_temperature;BMP_pressure;BME280_temperature;BME280_humidity;BME280_pressure;Samples;Min_cycle;Max_cycle;Signal;HPM_P1;HPM_P2
2023/06/17 00:01:11;;;;;;;6.60;4.93;;;;;;;-148.88;61.77;-17125.47;5035163;28;20021;-85
2023/06/17 00:03:36;;;;;;;7.68;5.40;;;;;;;-148.88;60.98;-17125.47;5053136;28;20039;-86
2023/06/17 00:06:02;;;;;;;7.22;4.65;;;;;;;-148.88;60.79;-17125.47;5052922;28;20025;-85
2023/06/17 00:08:27;;;;;;;6.53;5.38;;;;;;;-148.88;61.11;-17125.47;5053021;28;20436;-84
2023/06/17 00:10:52;;;;;;;6.95;5.07;;;;;;;-148.88;60.92;-17125.47;5034926;28;20453;-85
2023/06/17 00:13:21;;;;;;;9.00;5.40;;;;;;;-148.88;62.00;-17125.47;5053235;28;20024;-85
2023/06/17 00:15:50;;;;;;;8.90;5.75;;;;;;;-148.88;61.32;-17125.47;5034994;28;20491;-85
2023/06/17 00:18:19;;;;;;;8.93;6.13;;;;;;;-148.88;61.53;-17125.47;5053189;28;20079;-85
2023/06/17 00:20:46;;;;;;;7.90;5.90;;;;;;;-148.88;62.24;-17125.47;5052925;28;20104;-85
2023/06/17 00:23:11;;;;;;;7.68;6.20;;;;;;;-148.88;62.57;-17125.47;5052819;28;20036;-85
2023/06/17 00:25:37;;;;;;;9.27;5.68;;;;;;;-148.88;63.22;-17125.47;5034971;28;20025;-85
2023/06/17 00:28:02;;;;;;;8.05;5.88;;;;;;;-148.88;63.53;-17125.47;5035062;28;20021;-85
2023/06/17 00:30:28;;;;;;;7.90;6.10;;;;;;;-148.88;63.37;-17125.47;5035972;28;20025;-85
2023/06/17 00:32:53;;;;;;;6.82;5.78;;;;;;;-148.88;62.67;-17125.47;5053147;28;20098;-85
2023/06/17 00:35:20;;;;;;;7.70;6.00;;;;;;;-148.88;63.90;-17125.47;5052617;28;20025;-85
2023/06/17 00:37:45;;;;;;;8.32;5.80;;;;;;;-148.88;63.87;-17125.47;5052879;28;20567;-85
2023/06/17 00:40:11;;;;;;;9.27;6.85;;;;;;;-148.88;64.25;-17125.47;5035172;28;20043;-85
2023/06/17 00:42:36;;;;;;;12.75;6.43;;;;;;;-148.88;65.36;-17125.47;5039608;28;20506;-85
2023/06/17 00:45:02;;;;;;;10.05;6.82;;;;;;;-148.88;65.64;-17125.47;5038541;28;20048;-85
2023/06/17 00:47:27;;;;;;;9.77;7.85;;;;;;;-148.88;66.53;-17125.47;5038862;28;20052;-85
2023/06/17 00:49:53;;;;;;;9.35;7.28;;;;;;;-148.88;67.63;-17125.47;5038502;28;20020;-84
2023/06/17 00:52:20;;;;;;;8.57;7.35;;;;;;;-148.88;67.18;-17125.47;5038399;28;20069;-85
2023/06/17 00:54:45;;;;;;;7.60;6.60;;;;;;;-148.88;67.64;-17125.47;5038501;28;20025;-85
2023/06/17 00:57:15;;;;;;;7.20;6.28;;;;;;;-148.88;68.94;-17125.47;5038443;28;20021;-85
2023/06/17 00:59:43;;;;;;;7.15;5.70;;;;;;;-148.88;67.36;-17125.47;5038291;28;20115;-84
2023/06/17 01:02:10;;;;;;;6.75;5.85;;;;;;;-148.88;67.64;-17125.47;5038948;28;20079;-84
2023/06/17 01:04:42;;;;;;;9.18;6.72;;;;;;;-148.88;66.99;-17125.47;5056216;28;20475;-84
2023/06/17 01:07:30;;;;;;;9.88;6.35;;;;;;;-148.88;66.56;-17125.47;5056022;28;20036;-84
2023/06/17 01:10:01;;;;;;;7.63;6.13;;;;;;;-148.88;67.10;-17125.47;5056126;28;20510;-85
2023/06/17 01:12:28;;;;;;;8.18;6.30;;;;;;;-148.88;67.13;-17125.47;5039086;28;20056;-85
2023/06/17 01:14:55;;;;;;;7.40;5.82;;;;;;;-148.88;66.86;-17125.47;5056094;28;20021;-85
2023/06/17 01:17:21;;;;;;;10.00;7.05;;;;;;;-148.88;66.95;-17125.47;5055912;28;20032;-85
2023/06/17 01:19:48;;;;;;;9.02;6.30;;;;;;;-148.88;67.21;-17125.47;5037927;28;20024;-86
2023/06/17 01:22:16;;;;;;;6.93;5.90;;;;;;;-148.88;67.15;-17125.47;5055836;28;20021;-85
2023/06/17 01:24:42;;;;;;;7.20;6.15;;;;;;;-148.88;67.09;-17125.47;5038721;28;20024;-85
2023/06/17 01:27:08;;;;;;;7.85;6.50;;;;;;;-148.88;67.11;-17125.47;5038022;28;20021;-85
2023/06/17 01:29:33;;;;;;;8.73;6.22;;;;;;;-148.88;67.56;-17125.47;5055976;28;20024;-84
2023/06/17 01:32:00;;;;;;;7.60;5.90;;;;;;;-148.88;67.52;-17125.47;5055606;28;20040;-84
2023/06/17 01:34:33;;;;;;;10.13;6.50;;;;;;;-148.88;67.44;-17125.47;5037679;28;20035;-85
2023/06/17 01:37:04;;;;;;;8.30;6.50;;;;;;;-148.88;67.21;-17125.47;5037716;28;20116;-85
2023/06/17 01:39:32;;;;;;;7.85;6.40;;;;;;;-148.88;67.70;-17125.47;5037652;28;20116;-85
2023/06/17 01:41:59;;;;;;;7.78;6.65;;;;;;;-148.88;68.07;-17125.47;5037604;28;20029;-85
2023/06/17 01:44:27;;;;;;;7.40;6.25;;;;;;;-148.88;68.65;-17125.47;5055553;28;20479;-84
2023/06/17 01:46:52;;;;;;;8.80;6.32;;;;;;;-148.88;68.52;-17125.47;5037591;28;20483;-85
2023/06/17 01:49:18;;;;;;;10.68;6.30;;;;;;;-148.88;68.19;-17125.47;5037551;28;20104;-84
2023/06/17 01:51:43;;;;;;;7.50;6.70;;;;;;;-148.88;67.95;-17125.47;5037154;28;20426;-85
2023/06/17 01:54:09;;;;;;;9.05;7.13;;;;;;;-148.88;67.84;-17125.47;5037464;28;20024;-85
2023/06/17 01:56:34;;;;;;;10.07;7.80;;;;;;;-148.88;68.18;-17125.47;5055011;28;20068;-85
2023/06/17 01:58:59;;;;;;;9.20;7.15;;;;;;;-148.88;68.30;-17125.47;5055588;28;20032;-84
2023/06/17 02:01:26;;;;;;;9.05;7.30;;;;;;;-148.88;68.55;-17125.47;5037175;28;20170;-84
2023/06/17 02:03:51;;;;;;;8.63;7.72;;;;;;;-148.88;68.69;-17125.47;5037192;28;20403;-85
2023/06/17 02:06:17;;;;;;;8.48;7.22;;;;;;;-148.88;68.65;-17125.47;5037026;28;20087;-85
2023/06/17 02:08:44;;;;;;;8.52;7.15;;;;;;;-148.88;68.32;-17125.47;5055285;28;20032;-84
2023/06/17 02:11:10;;;;;;;8.20;7.15;;;;;;;-148.88;68.14;-17125.47;5037139;28;20044;-84
2023/06/17 02:13:35;;;;;;;7.72;6.80;;;;;;;-148.88;67.39;-17125.47;5037131;28;20055;-86
2023/06/17 02:16:00;;;;;;;9.93;7.35;;;;;;;-148.88;67.36;-17125.47;5037244;28;20059;-86
2023/06/17 02:18:26;;;;;;;7.88;7.07;;;;;;;-148.88;67.35;-17125.47;5036882;28;20028;-85
2023/06/17 02:20:52;;;;;;;8.50;7.25;;;;;;;-148.88;67.01;-17125.47;5054990;28;20032;-86
2023/06/17 02:23:17;;;;;;;9.65;6.90;;;;;;;-148.88;67.19;-17125.47;5037086;28;20155;-84
2023/06/17 02:25:43;;;;;;;9.90;7.15;;;;;;;-148.88;67.30;-17125.47;5037300;28;20491;-86
2023/06/17 02:28:08;;;;;;;7.40;6.60;;;;;;;-148.88;67.79;-17125.47;5054987;28;20475;-86
2023/06/17 02:30:34;;;;;;;9.55;7.30;;;;;;;-148.88;67.93;-17125.47;5055080;28;20024;-85
2023/06/17 02:33:03;;;;;;;8.38;7.40;;;;;;;-148.88;68.86;-17125.47;5054689;28;20097;-84
2023/06/17 02:35:28;;;;;;;8.10;6.95;;;;;;;-148.88;68.76;-17125.47;5054556;28;20033;-84
2023/06/17 02:37:54;;;;;;;10.20;7.28;;;;;;;-148.88;69.03;-17125.47;5054461;28;20029;-85
2023/06/17 02:40:20;;;;;;;9.57;7.78;;;;;;;-148.88;69.33;-17125.47;5036519;28;20509;-84
2023/06/17 02:42:45;;;;;;;10.10;7.97;;;;;;;-148.88;70.08;-17125.47;5054631;28;20020;-83
2023/06/17 02:45:12;;;;;;;12.00;7.68;;;;;;;-148.88;70.01;-17125.47;5054901;28;20032;-83
2023/06/17 02:47:38;;;;;;;9.63;7.85;;;;;;;-148.88;70.88;-17125.47;5054600;28;20048;-86
2023/06/17 02:50:05;;;;;;;9.77;7.72;;;;;;;-148.88;72.11;-17125.47;5036454;28;20056;-86
2023/06/17 02:52:31;;;;;;;9.23;7.65;;;;;;;-148.88;72.37;-17125.47;5054473;28;20025;-85
2023/06/17 02:54:56;;;;;;;10.02;7.43;;;;;;;-148.88;71.80;-17125.47;5054366;28;20032;-86
2023/06/17 02:57:21;;;;;;;9.25;7.85;;;;;;;-148.88;71.85;-17125.47;5056145;28;20024;-86
2023/06/17 02:59:47;;;;;;;9.57;7.57;;;;;;;-148.88;72.17;-17125.47;5054283;28;20017;-87
2023/06/17 03:02:12;;;;;;;9.00;7.07;;;;;;;-148.88;71.69;-17125.47;5054609;28;20025;-87
2023/06/17 03:04:38;;;;;;;9.23;7.45;;;;;;;-148.88;71.91;-17125.47;5053368;28;20100;-87
2023/06/17 03:07:04;;;;;;;8.90;7.50;;;;;;;-148.88;72.08;-17125.47;5053998;28;20047;-87
2023/06/17 03:09:30;;;;;;;10.75;7.43;;;;;;;-148.88;72.43;-17125.47;5036254;28;20024;-85
2023/06/17 03:11:55;;;;;;;9.85;7.55;;;;;;;-148.88;72.84;-17125.47;5054259;28;20402;-85
2023/06/17 03:14:20;;;;;;;9.48;7.38;;;;;;;-148.88;73.24;-17125.47;5054150;28;20024;-86
2023/06/17 03:16:46;;;;;;;7.65;6.50;;;;;;;-148.88;73.14;-17125.47;5054097;28;20032;-85
2023/06/17 03:19:13;;;;;;;10.23;7.20;;;;;;;-148.88;73.77;-17125.47;5035698;28;20036;-85
2023/06/17 03:21:40;;;;;;;8.68;7.47;;;;;;;-148.88;74.31;-17125.47;5036622;28;20028;-85
2023/06/17 03:24:07;;;;;;;9.50;7.80;;;;;;;-148.88;76.05;-17125.47;5035661;28;20025;-85
2023/06/17 03:26:32;;;;;;;9.70;7.68;;;;;;;-148.88;77.84;-17125.47;5035639;28;20487;-85
2023/06/17 03:28:57;;;;;;;10.80;8.02;;;;;;;-148.88;78.99;-17125.47;5053798;28;20035;-85
2023/06/17 03:31:23;;;;;;;11.25;7.70;;;;;;;-148.88;77.66;-17125.47;5035612;28;20028;-85
2023/06/17 03:33:51;;;;;;;9.90;7.20;;;;;;;-148.88;77.68;-17125.47;5053439;28;20024;-86
2023/06/17 03:36:24;;;;;;;9.35;7.60;;;;;;;-148.88;77.50;-17125.47;5035434;28;20032;-85
2023/06/17 03:38:50;;;;;;;8.98;7.78;;;;;;;-148.88;77.62;-17125.47;5053464;28;20021;-85
2023/06/17 03:41:15;;;;;;;13.15;8.60;;;;;;;-148.88;77.83;-17125.47;5053627;28;20398;-84
2023/06/17 03:43:41;;;;;;;10.02;8.02;;;;;;;-148.88;78.70;-17125.47;5051770;28;20399;-85
2023/06/17 03:46:06;;;;;;;12.10;8.02;;;;;;;-148.88;78.30;-17125.47;5056099;28;20112;-86
2023/06/17 03:48:31;;;;;;;12.45;8.07;;;;;;;-148.88;78.04;-17125.47;5055884;28;20021;-85
2023/06/17 03:50:57;;;;;;;9.13;8.23;;;;;;;-148.88;78.59;-17125.47;5054232;28;20025;-84
2023/06/17 03:53:22;;;;;;;9.68;7.70;;;;;;;-148.88;78.35;-17125.47;5035630;28;20021;-86
2023/06/17 03:55:47;;;;;;;12.00;8.50;;;;;;;-148.88;78.57;-17125.47;5035223;28;20028;-85
2023/06/17 03:58:14;;;;;;;10.52;8.07;;;;;;;-148.88;79.46;-17125.47;5053158;28;20032;-86
2023/06/17 04:00:41;;;;;;;10.68;8.00;;;;;;;-148.88;79.44;-17125.47;5035944;28;20037;-85
2023/06/17 04:03:06;;;;;;;9.90;8.90;;;;;;;-148.88;78.91;-17125.47;5035483;28;20387;-85
2023/06/17 04:05:32;;;;;;;9.25;8.25;;;;;;;-148.88;78.44;-17125.47;5035475;28;20502;-85
2023/06/17 04:07:59;;;;;;;9.60;7.97;;;;;;;-148.88;79.26;-17125.47;5053074;28;20496;-86
2023/06/17 04:10:25;;;;;;;10.38;8.32;;;;;;;-148.88;79.07;-17125.47;5035214;28;20039;-85
2023/06/17 04:12:51;;;;;;;11.82;8.57;;;;;;;-148.88;78.89;-17125.47;5052887;28;20035;-85
2023/06/17 04:15:16;;;;;;;9.93;8.20;;;;;;;-148.88;78.72;-17125.47;5054990;28;20029;-85
2023/06/17 04:17:42;;;;;;;14.90;8.98;;;;;;;-148.88;79.36;-17125.47;5057304;28;20103;-85
2023/06/17 04:20:10;;;;;;;10.98;8.40;;;;;;;-148.88;78.79;-17125.47;5039328;28;20120;-85
2023/06/17 04:22:40;;;;;;;12.45;8.65;;;;;;;-148.88;79.40;-17125.47;5039101;28;20507;-86
2023/06/17 04:25:08;;;;;;;10.40;8.35;;;;;;;-148.88;79.79;-17125.47;5039773;28;20531;-86
2023/06/17 04:27:34;;;;;;;12.32;8.95;;;;;;;-148.88;80.38;-17125.47;5056885;28;20021;-86
2023/06/17 04:30:01;;;;;;;10.15;8.93;;;;;;;-148.88;80.07;-17125.47;5038832;28;20023;-86
2023/06/17 04:32:26;;;;;;;11.27;8.73;;;;;;;-148.88;80.15;-17125.47;5039203;28;20025;-87
2023/06/17 04:34:53;;;;;;;11.25;9.23;;;;;;;-148.88;80.57;-17125.47;5039028;28;20059;-85
2023/06/17 04:37:19;;;;;;;13.48;9.07;;;;;;;-148.88;81.17;-17125.47;5056678;28;20083;-86
2023/06/17 04:39:45;;;;;;;12.57;9.40;;;;;;;-148.88;81.48;-17125.47;5039417;28;20470;-85
2023/06/17 04:42:12;;;;;;;14.60;9.07;;;;;;;-148.88;80.95;-17125.47;5038787;28;20033;-85
2023/06/17 04:44:38;;;;;;;11.38;8.82;;;;;;;-148.88;81.16;-17125.47;5056613;28;20112;-85
2023/06/17 04:47:09;;;;;;;10.23;9.23;;;;;;;-148.88;80.95;-17125.47;5056448;28;20043;-85
2023/06/17 04:49:38;;;;;;;12.90;8.82;;;;;;;-148.88;81.37;-17125.47;5056674;28;20368;-84
2023/06/17 04:52:24;;;;;;;11.07;9.18;;;;;;;-148.88;80.80;-17125.47;5056459;28;20025;-86
2023/06/17 04:54:52;;;;;;;12.48;9.32;;;;;;;-148.88;80.67;-17125.47;5056456;28;20060;-86
2023/06/17 04:57:18;;;;;;;11.15;9.75;;;;;;;-148.88;83.07;-17125.47;5057257;28;20060;-86
2023/06/17 04:59:43;;;;;;;12.05;9.55;;;;;;;-148.88;81.73;-17125.47;5056266;28;20071;-86
2023/06/17 05:02:10;;;;;;;11.70;9.43;;;;;;;-148.88;83.40;-17125.47;5056319;28;20075;-84
2023/06/17 05:04:35;;;;;;;13.90;10.05;;;;;;;-148.88;81.83;-17125.47;5038183;28;20372;-85
2023/06/17 05:07:00;;;;;;;12.73;9.93;;;;;;;-148.88;86.76;-17125.47;5038150;28;20054;-84
2023/06/17 05:09:26;;;;;;;11.25;9.65;;;;;;;-148.88;89.26;-17125.47;5038204;28;20025;-84
2023/06/17 05:11:51;;;;;;;12.02;10.00;;;;;;;-148.88;89.41;-17125.47;5055954;28;20064;-85
2023/06/17 05:14:16;;;;;;;14.30;10.57;;;;;;;-148.88;90.02;-17125.47;5056084;28;20025;-85
2023/06/17 05:16:44;;;;;;;12.52;10.20;;;;;;;-148.88;89.64;-17125.47;5056021;28;20063;-85
2023/06/17 05:19:10;;;;;;;12.30;10.48;;;;;;;-148.88;90.75;-17125.47;5037900;28;20029;-85
2023/06/17 05:21:35;;;;;;;13.25;10.60;;;;;;;-148.88;90.34;-17125.47;5037928;28;20021;-85
2023/06/17 05:24:00;;;;;;;12.13;10.65;;;;;;;-148.88;91.75;-17125.47;5038342;28;20033;-86
2023/06/17 05:26:27;;;;;;;12.68;10.68;;;;;;;-148.88;91.44;-17125.47;5055916;28;20056;-85
2023/06/17 05:28:52;;;;;;;11.95;10.70;;;;;;;-148.88;92.27;-17125.47;5055741;28;20025;-85
2023/06/17 05:31:18;;;;;;;13.80;11.60;;;;;;;-148.88;93.40;-17125.47;5037784;28;20021;-86
2023/06/17 05:33:43;;;;;;;14.38;12.82;;;;;;;-148.88;91.29;-17125.47;5056857;28;20032;-83
2023/06/17 05:36:09;;;;;;;13.55;11.98;;;;;;;-148.88;91.07;-17125.47;5056065;28;20124;-83
2023/06/17 05:38:34;;;;;;;13.45;11.30;;;;;;;-148.88;90.34;-17125.47;5056103;28;20032;-84
2023/06/17 05:40:59;;;;;;;13.85;11.35;;;;;;;-148.88;90.39;-17125.47;5057084;28;20049;-85
2023/06/17 05:43:28;;;;;;;14.32;12.45;;;;;;;-148.88;89.67;-17125.47;5055540;28;20410;-81
2023/06/17 05:45:53;;;;;;;14.73;11.70;;;;;;;-148.88;89.02;-17125.47;5021865;28;20024;-82
2023/06/17 05:48:19;;;;;;;12.82;11.48;;;;;;;-148.88;88.66;-17125.47;5056883;28;20021;-87
2023/06/17 05:50:44;;;;;;;14.13;11.85;;;;;;;-148.88;88.06;-17125.47;5055491;28;20029;-85
2023/06/17 05:53:10;;;;;;;14.32;12.07;;;;;;;-148.88;88.03;-17125.47;5055503;28;20131;-86
2023/06/17 05:55:35;;;;;;;13.68;12.23;;;;;;;-148.88;89.04;-17125.47;5037840;28;20053;-88
2023/06/17 05:58:01;;;;;;;14.80;12.63;;;;;;;-148.88;89.20;-17125.47;5037628;28;20029;-84
2023/06/17 06:00:26;;;;;;;16.05;12.43;;;;;;;-148.88;89.07;-17125.47;5055445;28;20035;-85
2023/06/17 06:02:51;;;;;;;14.65;12.77;;;;;;;-148.88;89.80;-17125.47;5055172;28;20021;-85
2023/06/17 06:05:17;;;;;;;15.27;12.35;;;;;;;-148.88;89.72;-17125.47;5055717;28;20021;-85
2023/06/17 06:07:45;;;;;;;16.88;13.38;;;;;;;-148.88;91.24;-17125.47;5054911;28;20437;-85
2023/06/17 06:10:11;;;;;;;15.77;13.02;;;;;;;-148.88;91.48;-17125.47;5055216;28;20025;-84
2023/06/17 06:12:37;;;;;;;16.85;13.15;;;;;;;-148.88;90.47;-17125.47;5054870;28;20078;-85
2023/06/17 06:15:04;;;;;;;17.30;13.10;;;;;;;-148.88;90.15;-17125.47;5054889;28;20063;-85
2023/06/17 06:17:30;;;;;;;17.25;12.55;;;;;;;-148.88;89.47;-17125.47;5054962;28;20052;-85
2023/06/17 06:19:55;;;;;;;14.32;12.18;;;;;;;-148.88;87.20;-17125.47;5036843;28;20049;-84
2023/06/17 06:22:21;;;;;;;16.08;12.13;;;;;;;-148.88;87.72;-17125.47;5054949;28;20029;-85
2023/06/17 06:24:46;;;;;;;14.93;11.68;;;;;;;-148.88;87.06;-17125.47;5054808;28;20100;-85
2023/06/17 06:27:11;;;;;;;15.43;12.05;;;;;;;-148.88;86.10;-17125.47;5054599;28;20051;-85
2023/06/17 06:29:37;;;;;;;15.95;12.35;;;;;;;-148.88;84.51;-17125.47;5054866;28;20040;-85
2023/06/17 06:32:03;;;;;;;16.80;12.30;;;;;;;-148.88;83.87;-17125.47;5054695;28;20021;-84
2023/06/17 06:34:31;;;;;;;13.23;11.57;;;;;;;-148.88;83.82;-17125.47;5037057;28;20395;-85
2023/06/17 06:36:58;;;;;;;14.15;11.55;;;;;;;-148.88;82.97;-17125.47;5054690;28;20459;-85
2023/06/17 06:39:23;;;;;;;14.45;11.27;;;;;;;-148.88;83.35;-17125.47;5053441;28;20056;-86
2023/06/17 06:41:48;;;;;;;14.02;11.25;;;;;;;-148.88;83.03;-17125.47;5036975;28;20055;-87
2023/06/17 06:44:14;;;;;;;12.85;11.45;;;;;;;-148.88;82.03;-17125.47;5036920;28;20057;-84
2023/06/17 06:46:39;;;;;;;14.52;11.65;;;;;;;-148.88;81.59;-17125.47;5054089;28;20055;-85
2023/06/17 06:49:05;;;;;;;14.10;12.00;;;;;;;-148.88;82.90;-17125.47;5054576;28;20482;-85
2023/06/17 06:51:31;;;;;;;11.85;10.48;;;;;;;-148.88;82.96;-17125.47;5054148;28;20025;-85
2023/06/17 06:53:56;;;;;;;14.68;11.07;;;;;;;-148.88;82.31;-17125.47;5054565;28;20105;-85
2023/06/17 06:56:22;;;;;;;16.48;11.98;;;;;;;-148.88;82.60;-17125.47;5053833;28;20535;-85
2023/06/17 06:58:47;;;;;;;14.88;10.60;;;;;;;-148.88;83.26;-17125.47;5054637;28;20420;-85
2023/06/17 07:01:13;;;;;;;12.82;10.60;;;;;;;-148.88;82.91;-17125.47;5054560;28;20020;-85
2023/06/17 07:03:41;;;;;;;13.65;10.82;;;;;;;-148.88;82.15;-17125.47;5054037;28;20016;-87
2023/06/17 07:06:07;;;;;;;15.93;11.10;;;;;;;-148.88;82.18;-17125.47;5054379;28;20027;-84
2023/06/17 07:08:33;;;;;;;14.38;10.85;;;;;;;-148.88;83.84;-17125.47;5036253;28;20029;-84
2023/06/17 07:10:58;;;;;;;12.55;10.90;;;;;;;-148.88;82.73;-17125.47;5054112;28;20024;-84
2023/06/17 07:13:23;;;;;;;14.15;11.02;;;;;;;-148.88;81.41;-17125.47;5036102;28;20021;-84
2023/06/17 07:15:49;;;;;;;16.20;11.48;;;;;;;-148.88;80.99;-17125.47;5036053;28;20410;-84
2023/06/17 07:18:14;;;;;;;15.18;11.77;;;;;;;-148.88;81.86;-17125.47;5053946;28;20391;-83
2023/06/17 07:20:40;;;;;;;15.10;11.63;;;;;;;-148.88;81.51;-17125.47;5054690;28;20033;-85
2023/06/17 07:23:05;;;;;;;14.25;11.35;;;;;;;-148.88;81.66;-17125.47;5035739;28;20032;-85
2023/06/17 07:25:30;;;;;;;14.05;11.07;;;;;;;-148.88;81.72;-17125.47;5053668;28;20043;-85
2023/06/17 07:28:02;;;;;;;13.88;11.23;;;;;;;-148.88;81.48;-17125.47;5053601;28;20060;-85
2023/06/17 07:30:28;;;;;;;15.48;10.95;;;;;;;-148.88;80.43;-17125.47;5036283;28;20163;-84
2023/06/17 07:32:53;;;;;;;15.38;11.63;;;;;;;-148.88;79.80;-17125.47;5053606;28;20491;-84
2023/06/17 07:35:18;;;;;;;14.43;11.07;;;;;;;-148.88;79.09;-17125.47;5035645;28;20021;-85
2023/06/17 07:37:44;;;;;;;17.42;11.07;;;;;;;-148.88;79.82;-17125.47;5053446;28;20029;-85
2023/06/17 07:40:11;;;;;;;13.98;11.85;;;;;;;-148.88;78.49;-17125.47;5053731;28;20029;-84
2023/06/17 07:42:37;;;;;;;13.73;10.90;;;;;;;-148.88;79.19;-17125.47;5053796;28;20064;-85
2023/06/17 07:45:04;;;;;;;14.88;11.82;;;;;;;-148.88;78.74;-17125.47;5036876;28;20386;-84
2023/06/17 07:47:30;;;;;;;14.32;10.93;;;;;;;-148.88;78.20;-17125.47;5053828;28;20021;-87
2023/06/17 07:49:56;;;;;;;12.38;10.98;;;;;;;-148.88;76.68;-17125.47;5053971;28;20021;-87
2023/06/17 07:52:21;;;;;;;15.88;10.75;;;;;;;-148.88;75.81;-17125.47;5035843;28;20033;-88
2023/06/17 07:54:51;;;;;;;14.15;10.95;;;;;;;-148.88;77.58;-17125.47;5035848;28;20432;-90
2023/06/17 07:57:16;;;;;;;12.63;10.93;;;;;;;-148.88;77.44;-17125.47;5035519;28;20041;-87
2023/06/17 07:59:43;;;;;;;17.02;11.38;;;;;;;-148.88;77.09;-17125.47;5055155;28;20044;-87
2023/06/17 08:02:09;;;;;;;13.07;9.77;;;;;;;-148.88;77.78;-17125.47;5053684;28;20025;-89
2023/06/17 08:04:35;;;;;;;14.32;10.68;;;;;;;-148.88;78.23;-17125.47;5036043;28;20032;-87
2023/06/17 08:07:01;;;;;;;13.77;9.75;;;;;;;-148.88;78.69;-17125.47;5038562;28;20442;-84
2023/06/17 08:09:30;;;;;;;15.32;10.82;;;;;;;-148.88;78.87;-17125.47;5053559;28;20533;-87
2023/06/17 08:11:56;;;;;;;15.20;10.00;;;;;;;-148.88;77.37;-17125.47;5053785;28;20021;-86
2023/06/17 08:14:21;;;;;;;14.35;10.68;;;;;;;-148.88;75.76;-17125.47;5035684;28;20120;-85
2023/06/17 08:16:47;;;;;;;12.90;10.75;;;;;;;-148.88;76.76;-17125.47;5053294;28;20115;-83
2023/06/17 08:19:12;;;;;;;13.23;10.25;;;;;;;-148.88;76.44;-17125.47;5035273;28;20146;-86
2023/06/17 08:21:38;;;;;;;13.98;10.00;;;;;;;-148.88;76.10;-17125.47;5053092;28;20021;-86
2023/06/17 08:24:25;;;;;;;12.60;10.40;;;;;;;-148.88;75.33;-17125.47;5053575;28;20029;-89
2023/06/17 08:26:52;;;;;;;13.40;10.65;;;;;;;-148.88;78.93;-17125.47;5053295;28;20031;-83
2023/06/17 08:29:18;;;;;;;13.05;10.40;;;;;;;-148.88;76.40;-17125.47;5053406;28;20055;-85
2023/06/17 08:31:47;;;;;;;14.10;11.10;;;;;;;-148.88;75.04;-17125.47;5053603;28;20054;-86
2023/06/17 08:34:13;;;;;;;12.65;10.27;;;;;;;-148.88;75.44;-17125.47;5035399;28;20052;-84
2023/06/17 08:36:46;;;;;;;12.80;9.60;;;;;;;-148.88;74.83;-17125.47;5053929;28;20490;-83
2023/06/17 08:39:12;;;;;;;14.25;10.25;;;;;;;-148.88;73.57;-17125.47;5035324;28;20043;-85
2023/06/17 08:45:00;;;;;;;13.27;9.82;;;;;;;-148.88;73.42;-17125.47;5053515;28;20403;-81
2023/06/17 08:47:26;;;;;;;10.55;8.55;;;;;;;-148.88;71.99;-17125.47;5052861;28;20048;-82
2023/06/17 08:49:55;;;;;;;14.00;9.63;;;;;;;-148.88;72.21;-17125.47;5034957;28;20106;-82
2023/06/17 08:52:22;;;;;;;15.35;9.68;;;;;;;-148.88;70.14;-17125.47;5035901;28;20025;-83
2023/06/17 08:54:48;;;;;;;13.15;9.73;;;;;;;-148.88;68.41;-17125.47;5035461;28;20029;-82
2023/06/17 08:57:14;;;;;;;16.08;10.23;;;;;;;-148.88;69.34;-17125.47;5054357;28;20040;-85
2023/06/17 08:59:40;;;;;;;13.82;9.60;;;;;;;-148.88;69.44;-17125.47;5056437;28;20029;-84
2023/06/17 09:02:08;;;;;;;13.02;9.27;;;;;;;-148.88;68.96;-17125.47;5056728;28;20021;-84
2023/06/17 09:04:35;;;;;;;14.07;10.57;;;;;;;-148.88;66.50;-17125.47;5040883;28;20035;-84
2023/06/17 09:07:00;;;;;;;12.55;9.63;;;;;;;-148.88;69.39;-17125.47;5061126;28;20024;-84
2023/06/17 09:09:26;;;;;;;12.35;9.13;;;;;;;-148.88;67.74;-17125.47;5060605;28;20071;-83
2023/06/17 09:11:52;;;;;;;12.90;9.25;;;;;;;-148.88;67.59;-17125.47;5060423;28;20032;-84
2023/06/17 09:14:19;;;;;;;17.17;9.50;;;;;;;-148.88;67.20;-17125.47;5058080;28;20029;-84
2023/06/17 09:16:44;;;;;;;12.75;10.30;;;;;;;-148.88;65.88;-17125.47;5056236;28;20048;-82
2023/06/17 09:19:13;;;;;;;21.42;10.23;;;;;;;-148.88;67.73;-17125.47;5038346;28;20071;-82
2023/06/17 09:21:38;;;;;;;13.25;9.73;;;;;;;-148.88;69.21;-17125.47;5056843;28;20020;-83
2023/06/17 09:24:06;;;;;;;24.33;10.38;;;;;;;-148.88;63.69;-17125.47;5056702;28;20032;-82
2023/06/17 09:26:33;;;;;;;15.30;10.38;;;;;;;-148.88;63.66;-17125.47;5056650;28;20077;-82
2023/06/17 09:29:04;;;;;;;15.98;9.65;;;;;;;-148.88;62.78;-17125.47;5057177;28;20028;-83
2023/06/17 09:31:31;;;;;;;15.75;8.93;;;;;;;-148.88;65.54;-17125.47;5056531;28;20399;-84
2023/06/17 09:33:57;;;;;;;14.15;8.77;;;;;;;-148.88;64.10;-17125.47;5056872;28;20025;-85
2023/06/17 09:36:23;;;;;;;12.73;8.85;;;;;;;-148.88;63.45;-17125.47;5037991;28;20029;-84
2023/06/17 09:38:52;;;;;;;10.75;8.63;;;;;;;-148.88;63.77;-17125.47;5055739;28;20028;-85
2023/06/17 09:41:18;;;;;;;10.82;8.27;;;;;;;-148.88;58.28;-17125.47;5037696;28;20029;-84
2023/06/17 09:43:54;;;;;;;11.70;7.68;;;;;;;-148.88;61.04;-17125.47;5055838;28;20155;-84
2023/06/17 09:46:25;;;;;;;11.50;8.88;;;;;;;-148.88;57.52;-17125.47;5055861;28;20021;-85
2023/06/17 09:48:52;;;;;;;12.18;9.25;;;;;;;-148.88;58.85;-17125.47;5037849;28;20387;-83
2023/06/17 09:51:21;;;;;;;12.98;8.98;;;;;;;-148.88;58.94;-17125.47;5037800;28;20021;-84
2023/06/17 09:53:49;;;;;;;11.38;8.30;;;;;;;-148.88;56.46;-17125.47;5056021;28;20112;-84
2023/06/17 09:56:17;;;;;;;13.57;8.25;;;;;;;-148.88;55.41;-17125.47;5055435;28;20033;-83
2023/06/17 09:58:44;;;;;;;13.38;8.60;;;;;;;-148.88;54.61;-17125.47;5055838;28;20017;-83
2023/06/17 10:01:11;;;;;;;11.93;8.88;;;;;;;-148.88;54.67;-17125.47;5055302;28;20020;-83
2023/06/17 10:03:43;;;;;;;13.60;8.68;;;;;;;-148.88;53.99;-17125.47;5055251;28;20025;-83
2023/06/17 10:06:10;;;;;;;12.23;7.68;;;;;;;-148.88;54.88;-17125.47;5037225;28;20032;-85
2023/06/17 10:08:39;;;;;;;12.35;8.43;;;;;;;-148.88;53.17;-17125.47;5055377;28;20479;-84
2023/06/17 10:11:04;;;;;;;12.90;7.97;;;;;;;-148.88;54.39;-17125.47;5055340;28;20029;-83
2023/06/17 10:13:38;;;;;;;12.05;8.20;;;;;;;-148.88;53.00;-17125.47;5055700;28;20024;-84
2023/06/17 10:16:09;;;;;;;12.52;8.20;;;;;;;-148.88;54.20;-17125.47;5055130;28;20044;-84
2023/06/17 10:18:36;;;;;;;10.38;7.65;;;;;;;-148.88;50.50;-17125.47;5055043;28;20359;-84
2023/06/17 10:21:04;;;;;;;10.98;7.07;;;;;;;-148.88;49.99;-17125.47;5054825;28;20036;-83
2023/06/17 10:23:32;;;;;;;11.50;7.80;;;;;;;-148.88;50.26;-17125.47;5055054;28;20043;-87
2023/06/17 10:25:58;;;;;;;9.75;7.40;;;;;;;-148.88;48.51;-17125.47;5054924;28;20487;-86
2023/06/17 10:28:23;;;;;;;8.25;6.85;;;;;;;-148.88;46.21;-17125.47;5054684;28;20036;-84
2023/06/17 10:30:51;;;;;;;10.45;7.35;;;;;;;-148.88;44.37;-17125.47;5037837;28;20060;-82
2023/06/17 10:33:27;;;;;;;10.18;7.78;;;;;;;-148.88;45.05;-17125.47;5037462;28;20368;-83
2023/06/17 10:36:06;;;;;;;13.10;7.25;;;;;;;-148.88;45.79;-17125.47;5055150;28;20028;-84
2023/06/17 10:38:33;;;;;;;13.52;7.05;;;;;;;-148.88;46.13;-17125.47;5055080;28;20025;-84
2023/06/17 10:40:58;;;;;;;10.32;7.55;;;;;;;-148.88;45.82;-17125.47;5054908;28;20021;-81
2023/06/17 10:43:25;;;;;;;10.90;7.82;;;;;;;-148.88;45.25;-17125.47;5055233;28;20028;-84
2023/06/17 10:45:57;;;;;;;9.93;7.13;;;;;;;-148.88;43.57;-17125.47;5054785;28;20025;-88
2023/06/17 10:48:32;;;;;;;11.38;7.65;;;;;;;-148.88;43.14;-17125.47;5036683;28;20063;-84
2023/06/17 10:51:01;;;;;;;14.27;8.60;;;;;;;-148.88;44.98;-17125.47;5055057;28;20483;-86
2023/06/17 10:53:32;;;;;;;11.20;8.63;;;;;;;-148.88;46.39;-17125.47;5054411;28;20033;-82
2023/06/17 10:56:03;;;;;;;11.18;8.48;;;;;;;-148.88;44.59;-17125.47;5077723;22;20064;-84
2023/06/17 10:58:35;;;;;;;12.93;7.50;;;;;;;-148.88;44.44;-17125.47;5054758;28;20123;-84
2023/06/17 11:01:05;;;;;;;10.35;7.38;;;;;;;-148.88;43.29;-17125.47;5054042;28;20029;-85
2023/06/17 11:03:31;;;;;;;12.15;8.50;;;;;;;-148.88;43.03;-17125.47;5071673;28;20025;-88